Max Winner — 9HA4071 — position and weather

sailwx.info

Track history (hours):
 
Tides and Currents Weather Stations Pressure Air Temp Water Temp Dewpoint Dewpoint Depression Visibility Wind Speed Wind Dir Waves Ship Positions

Max Winner

Last reported at 2018-Feb-18 18:26 UTC. Time now 2018-Feb-18 18:35 UTC.
Position N 51°57' E 003°60'.

Length 162 m; draft 7.6 m.

Type: Other ship. MMSI: 249052000.

Date/timePositionNaut miles runAvg speedWind from/ knotsBaromVisibWave heightAir tempDewpointWater temp
2018-Feb-18 18:26N 51°57' E 003°60'0 0.0
2018-Feb-18 17:59N 51°57' E 003°60'0 0.0
2018-Feb-18 17:29N 51°57' E 003°60'0 0.0
2018-Feb-18 16:56N 51°57' E 003°60'0 0.0
2018-Feb-18 16:29N 51°57' E 003°60'0 0.0
2018-Feb-18 15:59N 51°57' E 003°60'0 0.0
2018-Feb-18 15:29N 51°57' E 003°60'0 0.0
2018-Feb-18 14:59N 51°57' E 003°60'0 0.0
2018-Feb-18 14:29N 51°57' E 003°60'0 0.0
2018-Feb-18 13:56N 51°57' E 003°60'0 0.0
2018-Feb-18 13:29N 51°57' E 003°60'0 0.0
2018-Feb-18 12:59N 51°57' E 003°60'0 0.0
2018-Feb-18 12:29N 51°57' E 003°60'0 0.0
2018-Feb-18 11:53N 51°57' E 003°60'0 0.0
2018-Feb-18 11:29N 51°57' E 003°60'0 0.0
2018-Feb-18 10:59N 51°57' E 003°60'0 0.0
2018-Feb-18 10:29N 51°57' E 003°60'0 0.0
2018-Feb-18 09:59N 51°57' E 003°60'0 0.0
2018-Feb-18 09:29N 51°57' E 003°60'0 0.0
2018-Feb-18 08:59N 51°57' E 003°60'0 0.0
2018-Feb-18 08:26N 51°57' E 003°60'0 0.0
2018-Feb-18 07:59N 51°57' E 003°60'0 0.0
2018-Feb-18 07:29N 51°57' E 003°60'0 0.0
2018-Feb-18 06:56N 51°57' E 003°60'0 0.0
2018-Feb-18 06:29N 51°57' E 003°60'0 0.0
2018-Feb-18 05:56N 51°57' E 003°60'0 0.0
2018-Feb-18 05:31N 51°57' E 003°60'2 3.2
2018-Feb-18 05:00N 51°59' E 004°01'2 4.9
2018-Feb-18 04:30N 51°59' E 004°05'5 9.4
2018-Feb-18 04:01N 52°00' E 003°57'510.8
2018-Feb-18 03:30N 51°60' E 003°49'612.8
2018-Feb-18 03:00N 51°58' E 003°39'815.3
2018-Feb-18 02:30N 51°56' E 003°27'815.1
2018-Feb-18 01:59N 51°54' E 003°14'714.9
2018-Feb-18 01:30N 51°52' E 003°03'814.4
2018-Feb-18 00:55N 51°50' E 002°50'511.1
2018-Feb-18 00:29N 51°50' E 002°42'612.7
2018-Feb-18 00:00N 51°46' E 002°36'714.6
2018-Feb-17 23:29N 51°40' E 002°28'714.2
2018-Feb-17 22:59N 51°34' E 002°21'713.8
2018-Feb-17 22:30N 51°29' E 002°14'713.7
2018-Feb-17 22:00N 51°23' E 002°11'713.4
2018-Feb-17 21:30N 51°17' E 002°07'612.3
2018-Feb-17 21:00N 51°12' E 002°01'612.7
2018-Feb-17 20:30N 51°09' E 001°52'612.1
2018-Feb-17 20:01N 51°06' E 001°44'611.1
2018-Feb-17 19:30N 51°03' E 001°37'611.8
2018-Feb-17 19:00N 50°58' E 001°31'612.4
2018-Feb-17 18:30N 50°53' E 001°26'812.7
2018-Feb-17 17:50N 50°44' E 001°24'513.1
2018-Feb-17 17:26N 50°40' E 001°19'4413.2
2018-Feb-17 14:05N 50°21' E 000°16'112.8
2018-Feb-17 14:00N 50°21' E 000°15'713.4
2018-Feb-17 13:30N 50°19' E 000°05'813.8
2018-Feb-17 12:55N 50°17' W 000°07'614.0
2018-Feb-17 12:30N 50°15' W 000°16'814.5
2018-Feb-17 11:58N 50°13' W 000°28'915.2
2018-Feb-17 11:24N 50°12' W 000°41'715.7
2018-Feb-17 10:59N 50°11' W 000°52'712.1
2018-Feb-17 10:23N 50°16' W 000°59'513.3
2018-Feb-17 10:00N 50°22' W 000°59'713.5
2018-Feb-17 09:30N 50°28' W 000°60'612.8
2018-Feb-17 09:00N 50°35' W 000°59'611.5
2018-Feb-17 08:30N 50°40' W 000°58'5 9.7
2018-Feb-17 08:00N 50°44' W 001°04'5 9.8
2018-Feb-17 07:31N 50°48' W 001°07'1 1.7
2018-Feb-17 07:00N 50°49' W 001°06'0 0.0
2018-Feb-17 06:30N 50°49' W 001°06'0 0.0
2018-Feb-17 06:00N 50°49' W 001°06'0 0.0
2018-Feb-17 05:30N 50°49' W 001°06'0 0.0
2018-Feb-17 05:00N 50°49' W 001°06'0 0.0
2018-Feb-17 04:30N 50°49' W 001°06'0 0.0
2018-Feb-17 04:00N 50°49' W 001°06'0 0.0
2018-Feb-17 03:30N 50°49' W 001°06'0 0.0
2018-Feb-17 03:00N 50°49' W 001°06'0 0.0
2018-Feb-17 02:30N 50°49' W 001°06'0 0.0
2018-Feb-17 02:00N 50°49' W 001°06'0 0.0
2018-Feb-17 01:30N 50°49' W 001°06'0 0.0
2018-Feb-17 01:00N 50°49' W 001°06'0 0.0
2018-Feb-17 00:30N 50°49' W 001°06'0 0.0
2018-Feb-17 00:00N 50°49' W 001°06'0 0.0
2018-Feb-16 23:30N 50°49' W 001°06'0 0.0
2018-Feb-16 23:00N 50°49' W 001°06'0 0.0
2018-Feb-16 22:30N 50°49' W 001°06'0 0.0
2018-Feb-16 22:00N 50°49' W 001°06'0 0.0
2018-Feb-16 21:30N 50°49' W 001°06'0 0.0
2018-Feb-16 21:00N 50°49' W 001°06'0 0.0
2018-Feb-16 20:30N 50°49' W 001°06'0 0.0
2018-Feb-16 20:00N 50°49' W 001°06'0 0.0
2018-Feb-16 19:30N 50°49' W 001°06'0 0.0
2018-Feb-16 19:00N 50°49' W 001°06'0 0.0
2018-Feb-16 18:30N 50°49' W 001°06'0 0.0
2018-Feb-16 18:00N 50°49' W 001°06'0 0.0
2018-Feb-16 17:30N 50°49' W 001°06'0 0.0
2018-Feb-16 17:00N 50°49' W 001°06'0 0.0
2018-Feb-16 16:30N 50°49' W 001°06'0 0.0
2018-Feb-16 16:00N 50°49' W 001°06'0 0.0
2018-Feb-16 15:30N 50°49' W 001°06'0 0.0
2018-Feb-16 15:00N 50°49' W 001°06'0 0.0
2018-Feb-16 14:30N 50°49' W 001°06'0 0.0
2018-Feb-16 14:00N 50°49' W 001°06'0 0.0
2018-Feb-16 13:30N 50°49' W 001°06'0 0.0
2018-Feb-16 13:00N 50°49' W 001°06'0 0.0
2018-Feb-16 12:30N 50°49' W 001°06'0 0.0
2018-Feb-16 12:00N 50°49' W 001°06'0 0.0
2018-Feb-16 11:30N 50°49' W 001°06'0 0.0
2018-Feb-16 11:00N 50°49' W 001°06'0 0.0
2018-Feb-16 10:30N 50°49' W 001°06'0 0.0
2018-Feb-16 10:00N 50°49' W 001°06'0 0.0
2018-Feb-16 09:30N 50°49' W 001°06'0 0.0
2018-Feb-16 09:00N 50°49' W 001°06'0 0.0
2018-Feb-16 08:30N 50°49' W 001°06'0 0.0
2018-Feb-16 08:00N 50°49' W 001°06'0 0.0
2018-Feb-16 07:30N 50°49' W 001°06'0 0.0
2018-Feb-16 07:00N 50°49' W 001°06'0 0.0
2018-Feb-16 06:30N 50°49' W 001°06'0 0.0
2018-Feb-16 06:00N 50°49' W 001°06'0 0.0
2018-Feb-16 05:30N 50°49' W 001°06'0 0.0
2018-Feb-16 05:00N 50°49' W 001°06'0 0.0
2018-Feb-16 04:30N 50°49' W 001°06'0 0.0
2018-Feb-16 04:00N 50°49' W 001°06'0 0.0
2018-Feb-16 03:30N 50°49' W 001°06'0 0.0
2018-Feb-16 03:00N 50°49' W 001°06'0 0.0
2018-Feb-16 02:30N 50°49' W 001°06'0 0.0
2018-Feb-16 02:00N 50°49' W 001°06'0 0.0
2018-Feb-16 01:30N 50°49' W 001°06'0 0.0
2018-Feb-16 01:00N 50°49' W 001°06'0 0.0
2018-Feb-16 00:30N 50°49' W 001°06'0 0.0
2018-Feb-16 00:00N 50°49' W 001°06'0 0.0
2018-Feb-15 23:30N 50°49' W 001°06'0 0.0
2018-Feb-15 23:00N 50°49' W 001°06'0 0.0
2018-Feb-15 22:30N 50°49' W 001°06'0 0.0
2018-Feb-15 22:00N 50°49' W 001°06'0 0.0
2018-Feb-15 21:30N 50°49' W 001°06'1 1.3
2018-Feb-15 21:00N 50°49' W 001°07'4 9.0
2018-Feb-15 20:30N 50°44' W 001°04'510.8
2018-Feb-15 20:00N 50°40' W 000°59'510.7
2018-Feb-15 19:30N 50°35' W 001°00'714.3
2018-Feb-15 19:00N 50°28' W 001°01'1313.1
2018-Feb-15 18:00N 50°16' W 001°09'713.9
2018-Feb-15 17:30N 50°10' W 001°14'612.5
2018-Feb-15 17:00N 50°05' W 001°21'713.1
2018-Feb-15 16:30N 50°03' W 001°31'612.4
2018-Feb-15 16:01N 50°02' W 001°40'611.6
2018-Feb-15 15:30N 50°00' W 001°48'611.3
2018-Feb-15 15:00N 49°59' W 001°57'510.6
2018-Feb-15 14:30N 49°57' W 002°05'510.4
2018-Feb-15 14:00N 49°56' W 002°13'3111.6
2018-Feb-15 11:22N 49°47' W 002°58'512.9
2018-Feb-15 11:00N 49°45' W 003°05'713.1
2018-Feb-15 10:27N 49°41' W 003°14'6615.2
2018-Feb-15 06:04N 49°06' W 004°41'217.1
2018-Feb-15 05:58N 49°05' W 004°43'817.1
2018-Feb-15 05:30N 49°02' W 004°54'917.2
2018-Feb-15 05:00N 48°57' W 005°05'1117.5
2018-Feb-15 04:21N 48°51' W 005°20'617.5
2018-Feb-15 04:00N 48°49' W 005°29'917.1
2018-Feb-15 03:29N 48°43' W 005°38'1117.3
2018-Feb-15 02:53N 48°33' W 005°46'717.4
2018-Feb-15 02:30N 48°27' W 005°50'917.5
2018-Feb-15 01:59N 48°19' W 005°57'817.2
2018-Feb-15 01:30N 48°12' W 006°02'1017.0
2018-Feb-15 00:55N 48°03' W 006°09'817.0
2018-Feb-15 00:27N 47°56' W 006°15'816.8
2018-Feb-14 23:58N 47°49' W 006°20'816.5
2018-Feb-14 23:29N 47°42' W 006°26'1416.2
2018-Feb-14 22:36N 47°29' W 006°36'49714.8
2018-Feb-13 13:05N 39°32' W 009°50'414.3
2018-Feb-13 12:49N 39°28' W 009°50'514.5
2018-Feb-13 12:30N 39°24' W 009°50'714.9
2018-Feb-13 12:00N 39°16' W 009°50'714.8
2018-Feb-13 11:30N 39°09' W 009°50'714.4
2018-Feb-13 11:00N 39°02' W 009°50'714.4
2018-Feb-13 10:30N 38°55' W 009°50'714.6
2018-Feb-13 10:00N 38°47' W 009°50'714.5
2018-Feb-13 09:30N 38°40' W 009°50'714.4
2018-Feb-13 09:00N 38°33' W 009°51'713.7
2018-Feb-13 08:30N 38°26' W 009°52'  
Track history (hours):
 
Tides and Currents Weather Stations Pressure Air Temp Water Temp Dewpoint Dewpoint Depression Visibility Wind Speed Wind Dir Waves Ship Positions

Max Winner

Last reported at 2018-Feb-18 18:26 UTC. Time now 2018-Feb-18 18:35 UTC.
Position N 51°57' E 003°60'.

Length 162 m; draft 7.6 m.

Type: Other ship. MMSI: 249052000.

Date/timePositionNaut miles runAvg speedWind from/ knotsBaromVisibWave heightAir tempDewpointWater temp
2018-Feb-18 18:26N 51°57' E 003°60'0 0.0
2018-Feb-18 17:59N 51°57' E 003°60'0 0.0
2018-Feb-18 17:29N 51°57' E 003°60'0 0.0
2018-Feb-18 16:56N 51°57' E 003°60'0 0.0
2018-Feb-18 16:29N 51°57' E 003°60'0 0.0
2018-Feb-18 15:59N 51°57' E 003°60'0 0.0
2018-Feb-18 15:29N 51°57' E 003°60'0 0.0
2018-Feb-18 14:59N 51°57' E 003°60'0 0.0
2018-Feb-18 14:29N 51°57' E 003°60'0 0.0
2018-Feb-18 13:56N 51°57' E 003°60'0 0.0
2018-Feb-18 13:29N 51°57' E 003°60'0 0.0
2018-Feb-18 12:59N 51°57' E 003°60'0 0.0
2018-Feb-18 12:29N 51°57' E 003°60'0 0.0
2018-Feb-18 11:53N 51°57' E 003°60'0 0.0
2018-Feb-18 11:29N 51°57' E 003°60'0 0.0
2018-Feb-18 10:59N 51°57' E 003°60'0 0.0
2018-Feb-18 10:29N 51°57' E 003°60'0 0.0
2018-Feb-18 09:59N 51°57' E 003°60'0 0.0
2018-Feb-18 09:29N 51°57' E 003°60'0 0.0
2018-Feb-18 08:59N 51°57' E 003°60'0 0.0
2018-Feb-18 08:26N 51°57' E 003°60'0 0.0
2018-Feb-18 07:59N 51°57' E 003°60'0 0.0
2018-Feb-18 07:29N 51°57' E 003°60'0 0.0
2018-Feb-18 06:56N 51°57' E 003°60'0 0.0
2018-Feb-18 06:29N 51°57' E 003°60'0 0.0
2018-Feb-18 05:56N 51°57' E 003°60'0 0.0
2018-Feb-18 05:31N 51°57' E 003°60'2 3.2
2018-Feb-18 05:00N 51°59' E 004°01'2 4.9
2018-Feb-18 04:30N 51°59' E 004°05'5 9.4
2018-Feb-18 04:01N 52°00' E 003°57'510.8
2018-Feb-18 03:30N 51°60' E 003°49'612.8
2018-Feb-18 03:00N 51°58' E 003°39'815.3
2018-Feb-18 02:30N 51°56' E 003°27'815.1
2018-Feb-18 01:59N 51°54' E 003°14'714.9
2018-Feb-18 01:30N 51°52' E 003°03'814.4
2018-Feb-18 00:55N 51°50' E 002°50'511.1
2018-Feb-18 00:29N 51°50' E 002°42'612.7
2018-Feb-18 00:00N 51°46' E 002°36'714.6
2018-Feb-17 23:29N 51°40' E 002°28'714.2
2018-Feb-17 22:59N 51°34' E 002°21'713.8
2018-Feb-17 22:30N 51°29' E 002°14'713.7
2018-Feb-17 22:00N 51°23' E 002°11'713.4
2018-Feb-17 21:30N 51°17' E 002°07'612.3
2018-Feb-17 21:00N 51°12' E 002°01'612.7
2018-Feb-17 20:30N 51°09' E 001°52'612.1
2018-Feb-17 20:01N 51°06' E 001°44'611.1
2018-Feb-17 19:30N 51°03' E 001°37'611.8
2018-Feb-17 19:00N 50°58' E 001°31'612.4
2018-Feb-17 18:30N 50°53' E 001°26'812.7
2018-Feb-17 17:50N 50°44' E 001°24'513.1
2018-Feb-17 17:26N 50°40' E 001°19'4413.2
2018-Feb-17 14:05N 50°21' E 000°16'112.8
2018-Feb-17 14:00N 50°21' E 000°15'713.4
2018-Feb-17 13:30N 50°19' E 000°05'813.8
2018-Feb-17 12:55N 50°17' W 000°07'614.0
2018-Feb-17 12:30N 50°15' W 000°16'814.5
2018-Feb-17 11:58N 50°13' W 000°28'915.2
2018-Feb-17 11:24N 50°12' W 000°41'715.7
2018-Feb-17 10:59N 50°11' W 000°52'712.1
2018-Feb-17 10:23N 50°16' W 000°59'513.3
2018-Feb-17 10:00N 50°22' W 000°59'713.5
2018-Feb-17 09:30N 50°28' W 000°60'612.8
2018-Feb-17 09:00N 50°35' W 000°59'611.5
2018-Feb-17 08:30N 50°40' W 000°58'5 9.7
2018-Feb-17 08:00N 50°44' W 001°04'5 9.8
2018-Feb-17 07:31N 50°48' W 001°07'1 1.7
2018-Feb-17 07:00N 50°49' W 001°06'0 0.0
2018-Feb-17 06:30N 50°49' W 001°06'0 0.0
2018-Feb-17 06:00N 50°49' W 001°06'0 0.0
2018-Feb-17 05:30N 50°49' W 001°06'0 0.0
2018-Feb-17 05:00N 50°49' W 001°06'0 0.0
2018-Feb-17 04:30N 50°49' W 001°06'0 0.0
2018-Feb-17 04:00N 50°49' W 001°06'0 0.0
2018-Feb-17 03:30N 50°49' W 001°06'0 0.0
2018-Feb-17 03:00N 50°49' W 001°06'0 0.0
2018-Feb-17 02:30N 50°49' W 001°06'0 0.0
2018-Feb-17 02:00N 50°49' W 001°06'0 0.0
2018-Feb-17 01:30N 50°49' W 001°06'0 0.0
2018-Feb-17 01:00N 50°49' W 001°06'0 0.0
2018-Feb-17 00:30N 50°49' W 001°06'0 0.0
2018-Feb-17 00:00N 50°49' W 001°06'0 0.0
2018-Feb-16 23:30N 50°49' W 001°06'0 0.0
2018-Feb-16 23:00N 50°49' W 001°06'0 0.0
2018-Feb-16 22:30N 50°49' W 001°06'0 0.0
2018-Feb-16 22:00N 50°49' W 001°06'0 0.0
2018-Feb-16 21:30N 50°49' W 001°06'0 0.0
2018-Feb-16 21:00N 50°49' W 001°06'0 0.0
2018-Feb-16 20:30N 50°49' W 001°06'0 0.0
2018-Feb-16 20:00N 50°49' W 001°06'0 0.0
2018-Feb-16 19:30N 50°49' W 001°06'0 0.0
2018-Feb-16 19:00N 50°49' W 001°06'0 0.0
2018-Feb-16 18:30N 50°49' W 001°06'0 0.0
2018-Feb-16 18:00N 50°49' W 001°06'0 0.0
2018-Feb-16 17:30N 50°49' W 001°06'0 0.0
2018-Feb-16 17:00N 50°49' W 001°06'0 0.0
2018-Feb-16 16:30N 50°49' W 001°06'0 0.0
2018-Feb-16 16:00N 50°49' W 001°06'0 0.0
2018-Feb-16 15:30N 50°49' W 001°06'0 0.0
2018-Feb-16 15:00N 50°49' W 001°06'0 0.0
2018-Feb-16 14:30N 50°49' W 001°06'0 0.0
2018-Feb-16 14:00N 50°49' W 001°06'0 0.0
2018-Feb-16 13:30N 50°49' W 001°06'0 0.0
2018-Feb-16 13:00N 50°49' W 001°06'0 0.0
2018-Feb-16 12:30N 50°49' W 001°06'0 0.0
2018-Feb-16 12:00N 50°49' W 001°06'0 0.0
2018-Feb-16 11:30N 50°49' W 001°06'0 0.0
2018-Feb-16 11:00N 50°49' W 001°06'0 0.0
2018-Feb-16 10:30N 50°49' W 001°06'0 0.0
2018-Feb-16 10:00N 50°49' W 001°06'0 0.0
2018-Feb-16 09:30N 50°49' W 001°06'0 0.0
2018-Feb-16 09:00N 50°49' W 001°06'0 0.0
2018-Feb-16 08:30N 50°49' W 001°06'0 0.0
2018-Feb-16 08:00N 50°49' W 001°06'0 0.0
2018-Feb-16 07:30N 50°49' W 001°06'0 0.0
2018-Feb-16 07:00N 50°49' W 001°06'0 0.0
2018-Feb-16 06:30N 50°49' W 001°06'0 0.0
2018-Feb-16 06:00N 50°49' W 001°06'0 0.0
2018-Feb-16 05:30N 50°49' W 001°06'0 0.0
2018-Feb-16 05:00N 50°49' W 001°06'0 0.0
2018-Feb-16 04:30N 50°49' W 001°06'0 0.0
2018-Feb-16 04:00N 50°49' W 001°06'0 0.0
2018-Feb-16 03:30N 50°49' W 001°06'0 0.0
2018-Feb-16 03:00N 50°49' W 001°06'0 0.0
2018-Feb-16 02:30N 50°49' W 001°06'0 0.0
2018-Feb-16 02:00N 50°49' W 001°06'0 0.0
2018-Feb-16 01:30N 50°49' W 001°06'0 0.0
2018-Feb-16 01:00N 50°49' W 001°06'0 0.0
2018-Feb-16 00:30N 50°49' W 001°06'0 0.0
2018-Feb-16 00:00N 50°49' W 001°06'0 0.0
2018-Feb-15 23:30N 50°49' W 001°06'0 0.0
2018-Feb-15 23:00N 50°49' W 001°06'0 0.0
2018-Feb-15 22:30N 50°49' W 001°06'0 0.0
2018-Feb-15 22:00N 50°49' W 001°06'0 0.0
2018-Feb-15 21:30N 50°49' W 001°06'1 1.3
2018-Feb-15 21:00N 50°49' W 001°07'4 9.0
2018-Feb-15 20:30N 50°44' W 001°04'510.8
2018-Feb-15 20:00N 50°40' W 000°59'510.7
2018-Feb-15 19:30N 50°35' W 001°00'714.3
2018-Feb-15 19:00N 50°28' W 001°01'1313.1
2018-Feb-15 18:00N 50°16' W 001°09'713.9
2018-Feb-15 17:30N 50°10' W 001°14'612.5
2018-Feb-15 17:00N 50°05' W 001°21'713.1
2018-Feb-15 16:30N 50°03' W 001°31'612.4
2018-Feb-15 16:01N 50°02' W 001°40'611.6
2018-Feb-15 15:30N 50°00' W 001°48'611.3
2018-Feb-15 15:00N 49°59' W 001°57'510.6
2018-Feb-15 14:30N 49°57' W 002°05'510.4
2018-Feb-15 14:00N 49°56' W 002°13'3111.6
2018-Feb-15 11:22N 49°47' W 002°58'512.9
2018-Feb-15 11:00N 49°45' W 003°05'713.1
2018-Feb-15 10:27N 49°41' W 003°14'6615.2
2018-Feb-15 06:04N 49°06' W 004°41'217.1
2018-Feb-15 05:58N 49°05' W 004°43'817.1
2018-Feb-15 05:30N 49°02' W 004°54'917.2
2018-Feb-15 05:00N 48°57' W 005°05'1117.5
2018-Feb-15 04:21N 48°51' W 005°20'617.5
2018-Feb-15 04:00N 48°49' W 005°29'917.1
2018-Feb-15 03:29N 48°43' W 005°38'1117.3
2018-Feb-15 02:53N 48°33' W 005°46'717.4
2018-Feb-15 02:30N 48°27' W 005°50'917.5
2018-Feb-15 01:59N 48°19' W 005°57'817.2
2018-Feb-15 01:30N 48°12' W 006°02'1017.0
2018-Feb-15 00:55N 48°03' W 006°09'817.0
2018-Feb-15 00:27N 47°56' W 006°15'816.8
2018-Feb-14 23:58N 47°49' W 006°20'816.5
2018-Feb-14 23:29N 47°42' W 006°26'1416.2
2018-Feb-14 22:36N 47°29' W 006°36'49714.8
2018-Feb-13 13:05N 39°32' W 009°50'414.3
2018-Feb-13 12:49N 39°28' W 009°50'514.5
2018-Feb-13 12:30N 39°24' W 009°50'714.9
2018-Feb-13 12:00N 39°16' W 009°50'714.8
2018-Feb-13 11:30N 39°09' W 009°50'714.4
2018-Feb-13 11:00N 39°02' W 009°50'714.4
2018-Feb-13 10:30N 38°55' W 009°50'714.6
2018-Feb-13 10:00N 38°47' W 009°50'714.5
2018-Feb-13 09:30N 38°40' W 009°50'714.4
2018-Feb-13 09:00N 38°33' W 009°51'713.7
2018-Feb-13 08:30N 38°26' W 009°52'  

Dump ship's entire track history